BDS weather

Bocas De Satinga Airport
Bocas De Satinga, NariƱo Department, Colombia

Public forecast

Using degrees Celsius for public forecast. Weather courtesy of forecast.io.

METAR (pilot weather report)

Report is more than 6 hours old.

Closest report is Juan Casiano Airport, 28.3 nm (52.5 km) ENE. Retrieved 2019/08/02 20:00 UTC (15 days ago):

SKGP 022000Z 20005KT 9999 BKN015 30/25 A2978

TAF (pilot weather forecast)

Forecast is more than 12 hours old.

Closest forecast is Teniente Coronel Luis a Mantilla Airport, 99.4 nm (184.2 km) SSE. Retrieved 2018/04/06 18:33 UTC (1 year ago):

TAF SPJC 061700Z 0618/0718 25008KT CAVOK TX26/0618Z TN18/0711ZLVA0883 061730 GG KWBCYMYX 061730 SEQUYZYX SPEQ SEQU 061728 SPECI SETU 061728Z 07006KT 9999 -TSRA FEW020CB BKN023 CB OVER STN